sensor_id;sensor_type;location;lat;lon;timestamp;temperature;humidity
2757;DHT22;1386;50.862;6.494;2022-12-10T02:54:38;-0.80;99.90
2757;DHT22;1386;50.862;6.494;2022-12-10T02:57:22;-0.80;99.90
2757;DHT22;1386;50.862;6.494;2022-12-10T03:00:04;-0.80;99.90
2757;DHT22;1386;50.862;6.494;2022-12-10T03:02:38;-0.80;99.90
2757;DHT22;1386;50.862;6.494;2022-12-10T03:05:30;-0.80;99.90
2757;DHT22;1386;50.862;6.494;2022-12-10T03:08:05;-0.80;99.90
2757;DHT22;1386;50.862;6.494;2022-12-10T03:10:52;-0.80;99.90
2757;DHT22;1386;50.862;6.494;2022-12-10T03:13:29;-0.80;99.90
2757;DHT22;1386;50.862;6.494;2022-12-10T03:16:02;-0.80;99.90
2757;DHT22;1386;50.862;6.494;2022-12-10T03:18:34;-0.80;99.90
2757;DHT22;1386;50.862;6.494;2022-12-10T03:21:37;-0.70;99.90
2757;DHT22;1386;50.862;6.494;2022-12-10T03:24:08;-0.70;99.90
2757;DHT22;1386;50.862;6.494;2022-12-10T03:29:17;-0.70;99.90
2757;DHT22;1386;50.862;6.494;2022-12-10T03:31:58;-0.60;99.90
2757;DHT22;1386;50.862;6.494;2022-12-10T03:35:05;-0.60;99.90
2757;DHT22;1386;50.862;6.494;2022-12-10T03:37:33;-0.60;99.90
2757;DHT22;1386;50.862;6.494;2022-12-10T03:40:05;-0.60;99.90
2757;DHT22;1386;50.862;6.494;2022-12-10T03:42:55;-0.60;99.90
2757;DHT22;1386;50.862;6.494;2022-12-10T03:45:27;-0.70;99.90
2757;DHT22;1386;50.862;6.494;2022-12-10T03:47:54;-0.70;99.90
2757;DHT22;1386;50.862;6.494;2022-12-10T03:50:41;-0.60;99.90
2757;DHT22;1386;50.862;6.494;2022-12-10T03:53:08;-0.60;99.90
2757;DHT22;1386;50.862;6.494;2022-12-10T03:55:35;-0.60;99.90
2757;DHT22;1386;50.862;6.494;2022-12-10T03:58:24;-0.60;99.90
2757;DHT22;1386;50.862;6.494;2022-12-10T04:00:51;-0.60;99.90
2757;DHT22;1386;50.862;6.494;2022-12-10T04:03:33;-0.60;99.90
2757;DHT22;1386;50.862;6.494;2022-12-10T04:17:12;-0.60;99.90
2757;DHT22;1386;50.862;6.494;2022-12-10T04:19:39;-0.50;99.90
2757;DHT22;1386;50.862;6.494;2022-12-10T04:22:08;-0.40;99.90
2757;DHT22;1386;50.862;6.494;2022-12-10T04:24:52;-0.40;99.90
2757;DHT22;1386;50.862;6.494;2022-12-10T04:27:39;-0.40;99.90
2757;DHT22;1386;50.862;6.494;2022-12-10T08:06:02;0.00;99.90
2757;DHT22;1386;50.862;6.494;2022-12-10T08:08:29;0.00;99.90
2757;DHT22;1386;50.862;6.494;2022-12-10T08:10:59;0.00;99.90
2757;DHT22;1386;50.862;6.494;2022-12-10T08:16:02;0.00;99.90
2757;DHT22;1386;50.862;6.494;2022-12-10T08:22:02;0.00;99.90
2757;DHT22;1386;50.862;6.494;2022-12-10T08:27:08;0.10;99.90
2757;DHT22;1386;50.862;6.494;2022-12-10T08:29:35;0.10;99.90
2757;DHT22;1386;50.862;6.494;2022-12-10T08:32:02;0.10;99.90
2757;DHT22;1386;50.862;6.494;2022-12-10T08:37:56;0.10;99.90
2757;DHT22;1386;50.862;6.494;2022-12-10T08:40:39;0.10;99.90
2757;DHT22;1386;50.862;6.494;2022-12-10T08:43:06;0.10;99.90
2757;DHT22;1386;50.862;6.494;2022-12-10T08:45:58;0.10;99.90
2757;DHT22;1386;50.862;6.494;2022-12-10T08:48:43;0.10;99.90
2757;DHT22;1386;50.862;6.494;2022-12-10T08:51:30;0.10;99.90
2757;DHT22;1386;50.862;6.494;2022-12-10T08:53:59;0.10;99.90
2757;DHT22;1386;50.862;6.494;2022-12-10T08:56:26;0.20;99.90
2757;DHT22;1386;50.862;6.494;2022-12-10T08:58:53;0.20;99.90
2757;DHT22;1386;50.862;6.494;2022-12-10T09:01:20;0.20;99.90
2757;DHT22;1386;50.862;6.494;2022-12-10T09:03:47;0.20;99.90
2757;DHT22;1386;50.862;6.494;2022-12-10T09:06:17;0.30;99.90
2757;DHT22;1386;50.862;6.494;2022-12-10T09:08:45;0.30;99.90
2757;DHT22;1386;50.862;6.494;2022-12-10T09:11:15;1.00;99.90
2757;DHT22;1386;50.862;6.494;2022-12-10T09:13:43;1.50;99.90
2757;DHT22;1386;50.862;6.494;2022-12-10T09:16:10;1.90;99.90
2757;DHT22;1386;50.862;6.494;2022-12-10T09:18:37;1.70;99.90
2757;DHT22;1386;50.862;6.494;2022-12-10T09:29:40;1.10;99.90
2757;DHT22;1386;50.862;6.494;2022-12-10T09:36:08;1.10;99.90
2757;DHT22;1386;50.862;6.494;2022-12-10T09:56:26;1.10;99.90
2757;DHT22;1386;50.862;6.494;2022-12-10T09:59:21;1.10;99.90
2757;DHT22;1386;50.862;6.494;2022-12-10T10:02:19;1.20;99.90
2757;DHT22;1386;50.862;6.494;2022-12-10T10:05:10;1.30;99.90
2757;DHT22;1386;50.862;6.494;2022-12-10T10:08:11;1.40;99.90
2757;DHT22;1386;50.862;6.494;2022-12-10T10:11:17;1.50;99.90
2757;DHT22;1386;50.862;6.494;2022-12-10T10:28:05;1.70;99.90
2757;DHT22;1386;50.862;6.494;2022-12-10T10:30:35;1.70;99.90
2757;DHT22;1386;50.862;6.494;2022-12-10T10:33:08;1.80;99.90
2757;DHT22;1386;50.862;6.494;2022-12-10T10:35:43;1.80;99.90
2757;DHT22;1386;50.862;6.494;2022-12-10T10:38:18;1.90;99.90
2757;DHT22;1386;50.862;6.494;2022-12-10T10:40:49;1.90;99.90
2757;DHT22;1386;50.862;6.494;2022-12-10T10:43:20;2.00;99.90
2757;DHT22;1386;50.862;6.494;2022-12-10T10:45:51;2.00;99.90
2757;DHT22;1386;50.862;6.494;2022-12-10T10:48:35;2.00;99.90
2757;DHT22;1386;50.862;6.494;2022-12-10T10:51:07;2.00;99.90
2757;DHT22;1386;50.862;6.494;2022-12-10T10:53:42;2.10;99.90
2757;DHT22;1386;50.862;6.494;2022-12-10T10:56:21;2.10;99.90
2757;DHT22;1386;50.862;6.494;2022-12-10T10:58:54;2.20;99.90
2757;DHT22;1386;50.862;6.494;2022-12-10T11:01:24;2.20;99.90
2757;DHT22;1386;50.862;6.494;2022-12-10T11:03:56;2.30;99.90
2757;DHT22;1386;50.862;6.494;2022-12-10T11:06:26;2.40;99.90
2757;DHT22;1386;50.862;6.494;2022-12-10T11:08:56;2.50;99.90
2757;DHT22;1386;50.862;6.494;2022-12-10T11:11:32;2.70;99.90
2757;DHT22;1386;50.862;6.494;2022-12-10T11:14:19;2.70;99.90
2757;DHT22;1386;50.862;6.494;2022-12-10T11:17:03;2.80;99.90
2757;DHT22;1386;50.862;6.494;2022-12-10T11:19:45;2.80;99.90
2757;DHT22;1386;50.862;6.494;2022-12-10T11:22:28;2.80;99.90
2757;DHT22;1386;50.862;6.494;2022-12-10T11:24:57;2.80;99.90
2757;DHT22;1386;50.862;6.494;2022-12-10T11:27:44;2.90;99.90
2757;DHT22;1386;50.862;6.494;2022-12-10T11:34:06;3.10;99.90
2757;DHT22;1386;50.862;6.494;2022-12-10T11:37:01;3.10;99.90
2757;DHT22;1386;50.862;6.494;2022-12-10T11:39:51;3.20;99.90
2757;DHT22;1386;50.862;6.494;2022-12-10T11:42:30;3.30;99.90
2757;DHT22;1386;50.862;6.494;2022-12-10T11:45:06;3.20;99.90
2757;DHT22;1386;50.862;6.494;2022-12-10T11:47:42;3.30;99.90
2757;DHT22;1386;50.862;6.494;2022-12-10T11:50:24;3.30;99.90
2757;DHT22;1386;50.862;6.494;2022-12-10T11:53:07;3.30;99.90
2757;DHT22;1386;50.862;6.494;2022-12-10T11:55:53;3.40;99.90
2757;DHT22;1386;50.862;6.494;2022-12-10T11:58:52;3.40;99.90
2757;DHT22;1386;50.862;6.494;2022-12-10T12:02:20;3.50;99.90
2757;DHT22;1386;50.862;6.494;2022-12-10T12:05:09;3.60;99.90
2757;DHT22;1386;50.862;6.494;2022-12-10T12:07:44;3.50;99.90
2757;DHT22;1386;50.862;6.494;2022-12-10T12:10:46;3.60;99.90
2757;DHT22;1386;50.862;6.494;2022-12-10T12:13:23;3.50;99.90
2757;DHT22;1386;50.862;6.494;2022-12-10T12:15:55;3.60;99.90
2757;DHT22;1386;50.862;6.494;2022-12-10T12:18:31;3.50;99.90
2757;DHT22;1386;50.862;6.494;2022-12-10T12:24:03;3.60;99.90
2757;DHT22;1386;50.862;6.494;2022-12-10T12:26:36;3.50;99.90
2757;DHT22;1386;50.862;6.494;2022-12-10T12:29:13;3.40;99.90
2757;DHT22;1386;50.862;6.494;2022-12-10T12:31:54;3.30;99.90
2757;DHT22;1386;50.862;6.494;2022-12-10T12:52:33;3.40;99.90
2757;DHT22;1386;50.862;6.494;2022-12-10T14:10:32;1.80;99.90
2757;DHT22;1386;50.862;6.494;2022-12-10T14:13:03;1.80;99.90
2757;DHT22;1386;50.862;6.494;2022-12-10T14:15:44;1.80;99.90
2757;DHT22;1386;50.862;6.494;2022-12-10T14:18:23;1.70;99.90
2757;DHT22;1386;50.862;6.494;2022-12-10T14:21:06;1.70;99.90
2757;DHT22;1386;50.862;6.494;2022-12-10T14:23:34;1.70;99.90
2757;DHT22;1386;50.862;6.494;2022-12-10T14:26:06;1.70;99.90
2757;DHT22;1386;50.862;6.494;2022-12-10T14:28:38;1.70;99.90
2757;DHT22;1386;50.862;6.494;2022-12-10T14:31:09;1.70;99.90
2757;DHT22;1386;50.862;6.494;2022-12-10T14:33:39;1.60;99.90
2757;DHT22;1386;50.862;6.494;2022-12-10T14:36:07;1.60;99.90
2757;DHT22;1386;50.862;6.494;2022-12-10T14:38:41;1.70;99.90
2757;DHT22;1386;50.862;6.494;2022-12-10T14:41:11;1.60;99.90
2757;DHT22;1386;50.862;6.494;2022-12-10T14:43:40;1.60;99.90
2757;DHT22;1386;50.862;6.494;2022-12-10T14:46:13;1.60;99.90
2757;DHT22;1386;50.862;6.494;2022-12-10T14:48:54;1.70;99.90
2757;DHT22;1386;50.862;6.494;2022-12-10T14:51:23;1.60;99.90
2757;DHT22;1386;50.862;6.494;2022-12-10T14:53:54;1.60;99.90
2757;DHT22;1386;50.862;6.494;2022-12-10T14:56:25;1.60;99.90
2757;DHT22;1386;50.862;6.494;2022-12-10T14:58:57;1.60;99.90
2757;DHT22;1386;50.862;6.494;2022-12-10T15:01:29;1.60;99.90
2757;DHT22;1386;50.862;6.494;2022-12-10T15:03:59;1.60;99.90
2757;DHT22;1386;50.862;6.494;2022-12-10T15:06:27;1.60;99.90
2757;DHT22;1386;50.862;6.494;2022-12-10T15:08:56;1.60;99.90
2757;DHT22;1386;50.862;6.494;2022-12-10T15:11:27;1.60;99.90
2757;DHT22;1386;50.862;6.494;2022-12-10T15:13:57;1.60;99.90
2757;DHT22;1386;50.862;6.494;2022-12-10T15:16:31;1.60;99.90
2757;DHT22;1386;50.862;6.494;2022-12-10T15:19:18;1.50;99.90
2757;DHT22;1386;50.862;6.494;2022-12-10T15:21:46;1.50;99.90
2757;DHT22;1386;50.862;6.494;2022-12-10T15:24:17;1.50;99.90
2757;DHT22;1386;50.862;6.494;2022-12-10T15:26:47;1.50;99.90
2757;DHT22;1386;50.862;6.494;2022-12-10T15:29:29;1.50;99.90
2757;DHT22;1386;50.862;6.494;2022-12-10T15:31:58;1.50;99.90
2757;DHT22;1386;50.862;6.494;2022-12-10T15:34:28;1.50;99.90
2757;DHT22;1386;50.862;6.494;2022-12-10T15:36:58;1.50;99.90
2757;DHT22;1386;50.862;6.494;2022-12-10T15:39:27;1.50;99.90
2757;DHT22;1386;50.862;6.494;2022-12-10T15:41:57;1.50;99.90
2757;DHT22;1386;50.862;6.494;2022-12-10T15:44:27;1.40;99.90
2757;DHT22;1386;50.862;6.494;2022-12-10T15:46:59;1.40;99.90
2757;DHT22;1386;50.862;6.494;2022-12-10T15:49:27;1.40;99.90
2757;DHT22;1386;50.862;6.494;2022-12-10T15:51:54;1.40;99.90
2757;DHT22;1386;50.862;6.494;2022-12-10T15:54:22;1.40;99.90
2757;DHT22;1386;50.862;6.494;2022-12-10T15:56:49;1.30;99.90
2757;DHT22;1386;50.862;6.494;2022-12-10T15:59:17;1.30;99.90
2757;DHT22;1386;50.862;6.494;2022-12-10T16:02:10;1.30;99.90
2757;DHT22;1386;50.862;6.494;2022-12-10T16:04:52;1.30;99.90
2757;DHT22;1386;50.862;6.494;2022-12-10T16:07:19;1.30;99.90
2757;DHT22;1386;50.862;6.494;2022-12-10T16:10:08;1.30;99.90
2757;DHT22;1386;50.862;6.494;2022-12-10T16:12:38;1.20;99.90
2757;DHT22;1386;50.862;6.494;2022-12-10T16:15:15;1.20;99.90
2757;DHT22;1386;50.862;6.494;2022-12-10T16:17:43;1.20;99.90
2757;DHT22;1386;50.862;6.494;2022-12-10T16:20:18;1.20;99.90
2757;DHT22;1386;50.862;6.494;2022-12-10T16:22:46;1.20;99.90
2757;DHT22;1386;50.862;6.494;2022-12-10T16:25:14;1.20;99.90
2757;DHT22;1386;50.862;6.494;2022-12-10T16:27:41;1.20;99.90
2757;DHT22;1386;50.862;6.494;2022-12-10T16:30:19;1.20;99.90
2757;DHT22;1386;50.862;6.494;2022-12-10T16:32:47;1.20;99.90
2757;DHT22;1386;50.862;6.494;2022-12-10T16:35:17;1.20;99.90
2757;DHT22;1386;50.862;6.494;2022-12-10T16:37:45;1.20;99.90
2757;DHT22;1386;50.862;6.494;2022-12-10T16:40:13;1.10;99.90
2757;DHT22;1386;50.862;6.494;2022-12-10T16:42:42;1.10;99.90
2757;DHT22;1386;50.862;6.494;2022-12-10T16:45:17;1.10;99.90
2757;DHT22;1386;50.862;6.494;2022-12-10T16:47:46;1.10;99.90
2757;DHT22;1386;50.862;6.494;2022-12-10T16:50:19;1.10;99.90
2757;DHT22;1386;50.862;6.494;2022-12-10T16:52:56;1.10;99.90
2757;DHT22;1386;50.862;6.494;2022-12-10T16:55:29;1.10;99.90
2757;DHT22;1386;50.862;6.494;2022-12-10T16:57:59;1.00;99.90
2757;DHT22;1386;50.862;6.494;2022-12-10T17:00:28;1.00;99.90
2757;DHT22;1386;50.862;6.494;2022-12-10T17:03:08;1.00;99.90
2757;DHT22;1386;50.862;6.494;2022-12-10T17:05:50;1.00;99.90
2757;DHT22;1386;50.862;6.494;2022-12-10T17:08:24;1.00;99.90
2757;DHT22;1386;50.862;6.494;2022-12-10T17:11:33;1.00;99.90
2757;DHT22;1386;50.862;6.494;2022-12-10T17:14:42;1.00;99.90
2757;DHT22;1386;50.862;6.494;2022-12-10T17:17:28;1.00;99.90
2757;DHT22;1386;50.862;6.494;2022-12-10T17:20:21;1.00;99.90
2757;DHT22;1386;50.862;6.494;2022-12-10T17:22:55;1.00;99.90
2757;DHT22;1386;50.862;6.494;2022-12-10T17:25:26;1.00;99.90
2757;DHT22;1386;50.862;6.494;2022-12-10T17:28:21;1.00;99.90
2757;DHT22;1386;50.862;6.494;2022-12-10T17:33:28;1.00;99.90
2757;DHT22;1386;50.862;6.494;2022-12-10T17:34:31;0.90;99.90
2757;DHT22;1386;50.862;6.494;2022-12-10T17:37:04;0.90;99.90
2757;DHT22;1386;50.862;6.494;2022-12-10T17:39:34;0.90;99.90
2757;DHT22;1386;50.862;6.494;2022-12-10T17:42:06;0.90;99.90
2757;DHT22;1386;50.862;6.494;2022-12-10T17:47:47;0.90;99.90
2757;DHT22;1386;50.862;6.494;2022-12-10T17:50:30;0.80;99.90
